sensor_id;sensor_type;location;lat;lon;timestamp;pressure;altitude;pressure_sealevel;temperature;humidity
22662;BME280;11497;52.222;21.246;2022-07-05T00:01:31;100440.19;;;17.44;93.75
22662;BME280;11497;52.222;21.246;2022-07-05T00:03:59;100444.91;;;17.39;93.29
22662;BME280;11497;52.222;21.246;2022-07-05T00:06:26;100447.53;;;17.25;93.49
22662;BME280;11497;52.222;21.246;2022-07-05T00:08:54;100456.53;;;17.37;93.64
22662;BME280;11497;52.222;21.246;2022-07-05T00:11:22;100448.97;;;17.45;93.42
22662;BME280;11497;52.222;21.246;2022-07-05T00:13:50;100453.41;;;17.44;93.34
22662;BME280;11497;52.222;21.246;2022-07-05T00:16:18;100456.06;;;17.58;93.48
22662;BME280;11497;52.222;21.246;2022-07-05T00:18:46;100454.47;;;17.84;92.33
22662;BME280;11497;52.222;21.246;2022-07-05T00:21:13;100448.16;;;17.87;91.60
22662;BME280;11497;52.222;21.246;2022-07-05T00:23:41;100447.28;;;18.01;91.49
22662;BME280;11497;52.222;21.246;2022-07-05T00:26:09;100440.59;;;17.95;91.24
22662;BME280;11497;52.222;21.246;2022-07-05T00:28:37;100443.41;;;17.92;91.36
22662;BME280;11497;52.222;21.246;2022-07-05T00:31:04;100441.91;;;17.88;91.40
22662;BME280;11497;52.222;21.246;2022-07-05T00:33:32;100445.78;;;17.82;91.92
22662;BME280;11497;52.222;21.246;2022-07-05T00:36:00;100450.72;;;17.74;92.33
22662;BME280;11497;52.222;21.246;2022-07-05T00:38:28;100450.06;;;17.71;92.62
22662;BME280;11497;52.222;21.246;2022-07-05T00:40:56;100455.38;;;17.71;93.02
22662;BME280;11497;52.222;21.246;2022-07-05T00:43:24;100450.78;;;17.58;93.16
22662;BME280;11497;52.222;21.246;2022-07-05T00:45:51;100460.97;;;17.50;93.50
22662;BME280;11497;52.222;21.246;2022-07-05T00:48:19;100458.31;;;17.36;94.00
22662;BME280;11497;52.222;21.246;2022-07-05T00:50:47;100464.00;;;17.30;94.34
22662;BME280;11497;52.222;21.246;2022-07-05T00:53:15;100468.31;;;17.17;95.06
22662;BME280;11497;52.222;21.246;2022-07-05T00:55:44;100475.97;;;17.21;95.64
22662;BME280;11497;52.222;21.246;2022-07-05T00:58:12;100471.91;;;17.16;95.84
22662;BME280;11497;52.222;21.246;2022-07-05T01:00:40;100471.13;;;17.14;96.21
22662;BME280;11497;52.222;21.246;2022-07-05T01:03:08;100468.84;;;17.08;96.46
22662;BME280;11497;52.222;21.246;2022-07-05T01:05:36;100475.16;;;17.05;96.77
22662;BME280;11497;52.222;21.246;2022-07-05T01:08:05;100481.47;;;17.03;97.14
22662;BME280;11497;52.222;21.246;2022-07-05T01:10:33;100481.88;;;17.11;97.38
22662;BME280;11497;52.222;21.246;2022-07-05T01:13:01;100481.34;;;17.20;97.51
22662;BME280;11497;52.222;21.246;2022-07-05T01:15:30;100485.53;;;17.24;97.74
22662;BME280;11497;52.222;21.246;2022-07-05T01:17:58;100482.69;;;17.27;97.97
22662;BME280;11497;52.222;21.246;2022-07-05T01:20:26;100490.09;;;17.50;97.92
22662;BME280;11497;52.222;21.246;2022-07-05T01:22:56;100479.69;;;17.47;97.43
22662;BME280;11497;52.222;21.246;2022-07-05T01:25:26;100492.41;;;17.71;97.20
22662;BME280;11497;52.222;21.246;2022-07-05T01:27:55;100495.22;;;17.82;96.12
22662;BME280;11497;52.222;21.246;2022-07-05T01:30:24;100490.53;;;17.73;95.56
22662;BME280;11497;52.222;21.246;2022-07-05T01:32:53;100493.72;;;17.78;95.31
22662;BME280;11497;52.222;21.246;2022-07-05T01:35:20;100505.44;;;17.88;94.47
22662;BME280;11497;52.222;21.246;2022-07-05T01:37:49;100493.16;;;17.87;93.75
22662;BME280;11497;52.222;21.246;2022-07-05T01:40:18;100499.97;;;17.91;93.25
22662;BME280;11497;52.222;21.246;2022-07-05T01:42:47;100510.75;;;17.88;92.45
22662;BME280;11497;52.222;21.246;2022-07-05T01:45:16;100513.88;;;17.80;92.27
22662;BME280;11497;52.222;21.246;2022-07-05T01:48:07;100519.34;;;17.77;92.03
22662;BME280;11497;52.222;21.246;2022-07-05T01:50:49;100515.97;;;17.75;91.87
22662;BME280;11497;52.222;21.246;2022-07-05T01:53:29;100511.50;;;17.90;91.57
22662;BME280;11497;52.222;21.246;2022-07-05T01:55:59;100508.28;;;17.99;90.35
22662;BME280;11497;52.222;21.246;2022-07-05T01:58:29;100515.66;;;17.94;89.92
22662;BME280;11497;52.222;21.246;2022-07-05T02:00:58;100514.16;;;17.90;89.61
22662;BME280;11497;52.222;21.246;2022-07-05T02:03:27;100508.97;;;17.74;89.34
22662;BME280;11497;52.222;21.246;2022-07-05T02:06:15;100516.59;;;17.79;89.46
22662;BME280;11497;52.222;21.246;2022-07-05T02:08:43;100514.16;;;17.76;89.25
22662;BME280;11497;52.222;21.246;2022-07-05T02:11:10;100519.94;;;17.68;89.69
22662;BME280;11497;52.222;21.246;2022-07-05T02:13:39;100518.03;;;17.70;89.45
22662;BME280;11497;52.222;21.246;2022-07-05T02:16:08;100522.13;;;17.76;89.23
22662;BME280;11497;52.222;21.246;2022-07-05T02:18:35;100516.81;;;17.76;88.82
22662;BME280;11497;52.222;21.246;2022-07-05T02:21:04;100520.25;;;17.62;89.10
22662;BME280;11497;52.222;21.246;2022-07-05T02:23:32;100525.56;;;17.62;88.98
22662;BME280;11497;52.222;21.246;2022-07-05T02:26:01;100517.22;;;17.54;89.10
22662;BME280;11497;52.222;21.246;2022-07-05T02:28:30;100524.88;;;17.58;89.16
22662;BME280;11497;52.222;21.246;2022-07-05T02:30:58;100515.44;;;17.54;89.20
22662;BME280;11497;52.222;21.246;2022-07-05T02:33:26;100515.22;;;17.43;89.61
22662;BME280;11497;52.222;21.246;2022-07-05T02:35:54;100511.97;;;17.38;89.99
22662;BME280;11497;52.222;21.246;2022-07-05T02:38:22;100509.34;;;17.38;90.32
22662;BME280;11497;52.222;21.246;2022-07-05T02:40:50;100516.25;;;17.41;90.21
22662;BME280;11497;52.222;21.246;2022-07-05T02:43:19;100518.63;;;17.45;89.76
22662;BME280;11497;52.222;21.246;2022-07-05T02:45:48;100523.16;;;17.43;89.69
22662;BME280;11497;52.222;21.246;2022-07-05T02:48:16;100512.22;;;17.63;89.31
22662;BME280;11497;52.222;21.246;2022-07-05T02:50:44;100518.56;;;17.61;88.60
22662;BME280;11497;52.222;21.246;2022-07-05T02:53:14;100520.13;;;17.49;88.78
22662;BME280;11497;52.222;21.246;2022-07-05T02:55:42;100524.59;;;17.49;89.31
22662;BME280;11497;52.222;21.246;2022-07-05T02:58:11;100529.41;;;17.56;89.00
22662;BME280;11497;52.222;21.246;2022-07-05T03:00:40;100532.97;;;17.41;89.00
22662;BME280;11497;52.222;21.246;2022-07-05T03:03:09;100536.28;;;17.75;88.72
22662;BME280;11497;52.222;21.246;2022-07-05T03:05:37;100538.19;;;17.73;87.69
22662;BME280;11497;52.222;21.246;2022-07-05T03:08:05;100537.59;;;17.68;87.77
22662;BME280;11497;52.222;21.246;2022-07-05T03:10:36;100540.41;;;17.65;87.62
22662;BME280;11497;52.222;21.246;2022-07-05T03:13:06;100542.31;;;17.77;87.47
22662;BME280;11497;52.222;21.246;2022-07-05T03:15:34;100546.47;;;17.81;87.28
22662;BME280;11497;52.222;21.246;2022-07-05T03:18:03;100558.59;;;17.99;86.38
22662;BME280;11497;52.222;21.246;2022-07-05T03:20:33;100550.47;;;18.02;86.29
22662;BME280;11497;52.222;21.246;2022-07-05T03:23:02;100557.28;;;18.06;86.12
22662;BME280;11497;52.222;21.246;2022-07-05T03:25:40;100552.53;;;18.25;85.43
22662;BME280;11497;52.222;21.246;2022-07-05T03:28:09;100561.16;;;18.29;84.05
22662;BME280;11497;52.222;21.246;2022-07-05T03:30:39;100555.56;;;18.34;83.61
22662;BME280;11497;52.222;21.246;2022-07-05T03:33:08;100562.47;;;18.50;83.43
22662;BME280;11497;52.222;21.246;2022-07-05T03:35:38;100561.41;;;18.53;83.26
22662;BME280;11497;52.222;21.246;2022-07-05T03:38:06;100567.66;;;18.52;83.09
22662;BME280;11497;52.222;21.246;2022-07-05T03:40:34;100567.06;;;18.75;82.65
22662;BME280;11497;52.222;21.246;2022-07-05T03:43:02;100559.81;;;18.91;81.21
22662;BME280;11497;52.222;21.246;2022-07-05T03:45:34;100569.47;;;18.92;80.82
22662;BME280;11497;52.222;21.246;2022-07-05T03:48:05;100568.22;;;18.98;80.79
22662;BME280;11497;52.222;21.246;2022-07-05T03:50:53;100566.94;;;18.91;80.68
22662;BME280;11497;52.222;21.246;2022-07-05T03:53:23;100570.13;;;18.96;80.41
22662;BME280;11497;52.222;21.246;2022-07-05T03:55:51;100565.09;;;19.06;79.16
22662;BME280;11497;52.222;21.246;2022-07-05T03:58:19;100563.38;;;19.05;78.52
22662;BME280;11497;52.222;21.246;2022-07-05T04:00:47;100568.16;;;18.85;78.84
22662;BME280;11497;52.222;21.246;2022-07-05T04:03:20;100568.97;;;18.73;79.35
22662;BME280;11497;52.222;21.246;2022-07-05T04:05:50;100563.84;;;18.70;80.08
22662;BME280;11497;52.222;21.246;2022-07-05T04:08:18;100564.31;;;18.77;79.59
22662;BME280;11497;52.222;21.246;2022-07-05T04:10:48;100564.25;;;18.64;80.03
22662;BME280;11497;52.222;21.246;2022-07-05T04:13:19;100572.00;;;18.53;80.21
22662;BME280;11497;52.222;21.246;2022-07-05T04:15:49;100572.00;;;18.53;80.56
22662;BME280;11497;52.222;21.246;2022-07-05T04:18:17;100564.94;;;18.39;81.04
22662;BME280;11497;52.222;21.246;2022-07-05T04:20:46;100566.16;;;18.34;81.67
22662;BME280;11497;52.222;21.246;2022-07-05T04:23:14;100574.69;;;18.24;82.32
22662;BME280;11497;52.222;21.246;2022-07-05T04:25:43;100579.03;;;18.25;82.69
22662;BME280;11497;52.222;21.246;2022-07-05T04:28:20;100586.03;;;18.26;82.60
22662;BME280;11497;52.222;21.246;2022-07-05T04:30:51;100582.25;;;18.31;82.59
22662;BME280;11497;52.222;21.246;2022-07-05T04:33:22;100588.88;;;18.38;82.33
22662;BME280;11497;52.222;21.246;2022-07-05T04:35:53;100582.44;;;18.42;81.85
22662;BME280;11497;52.222;21.246;2022-07-05T04:38:21;100582.63;;;18.53;81.27
22662;BME280;11497;52.222;21.246;2022-07-05T04:40:50;100574.69;;;18.39;81.25
22662;BME280;11497;52.222;21.246;2022-07-05T04:43:19;100583.00;;;18.47;81.76
22662;BME280;11497;52.222;21.246;2022-07-05T04:45:47;100579.78;;;18.56;81.04
22662;BME280;11497;52.222;21.246;2022-07-05T04:48:22;100586.69;;;18.44;81.17
22662;BME280;11497;52.222;21.246;2022-07-05T04:50:49;100583.38;;;18.41;81.79
22662;BME280;11497;52.222;21.246;2022-07-05T04:53:17;100593.97;;;18.41;81.75
22662;BME280;11497;52.222;21.246;2022-07-05T04:55:45;100593.59;;;18.47;82.15
22662;BME280;11497;52.222;21.246;2022-07-05T04:58:13;100587.91;;;18.67;81.62
22662;BME280;11497;52.222;21.246;2022-07-05T05:00:41;100588.06;;;18.78;80.96
22662;BME280;11497;52.222;21.246;2022-07-05T05:03:09;100578.19;;;18.94;80.24
22662;BME280;11497;52.222;21.246;2022-07-05T05:05:37;100583.50;;;18.94;80.41
22662;BME280;11497;52.222;21.246;2022-07-05T05:08:04;100591.38;;;19.09;79.85
22662;BME280;11497;52.222;21.246;2022-07-05T05:10:32;100598.38;;;19.10;79.72
22662;BME280;11497;52.222;21.246;2022-07-05T05:13:00;100605.19;;;19.14;79.73
22662;BME280;11497;52.222;21.246;2022-07-05T05:15:28;100617.06;;;19.08;79.86
22662;BME280;11497;52.222;21.246;2022-07-05T05:17:56;100604.16;;;19.16;79.64
22662;BME280;11497;52.222;21.246;2022-07-05T05:20:24;100606.91;;;19.15;79.16
22662;BME280;11497;52.222;21.246;2022-07-05T05:22:51;100611.81;;;19.21;78.98
22662;BME280;11497;52.222;21.246;2022-07-05T05:25:19;100618.22;;;19.31;78.37
22662;BME280;11497;52.222;21.246;2022-07-05T05:27:50;100626.19;;;19.31;78.26
22662;BME280;11497;52.222;21.246;2022-07-05T05:30:19;100620.56;;;19.36;78.27
22662;BME280;11497;52.222;21.246;2022-07-05T05:32:47;100625.59;;;19.40;78.44
22662;BME280;11497;52.222;21.246;2022-07-05T05:35:15;100629.53;;;19.47;78.66
22662;BME280;11497;52.222;21.246;2022-07-05T05:37:53;100630.78;;;19.69;77.53
22662;BME280;11497;52.222;21.246;2022-07-05T05:40:22;100626.41;;;19.68;76.91
22662;BME280;11497;52.222;21.246;2022-07-05T05:42:52;100621.75;;;19.71;76.77
22662;BME280;11497;52.222;21.246;2022-07-05T05:45:21;100616.25;;;20.12;75.70
22662;BME280;11497;52.222;21.246;2022-07-05T05:47:53;100603.28;;;20.08;75.06
22662;BME280;11497;52.222;21.246;2022-07-05T05:50:23;100607.31;;;20.13;74.78
22662;BME280;11497;52.222;21.246;2022-07-05T05:52:52;100613.28;;;20.30;74.50
22662;BME280;11497;52.222;21.246;2022-07-05T05:55:22;100614.53;;;20.37;73.74
22662;BME280;11497;52.222;21.246;2022-07-05T05:57:51;100610.50;;;20.44;73.13
22662;BME280;11497;52.222;21.246;2022-07-05T06:00:21;100605.59;;;20.63;72.41
22662;BME280;11497;52.222;21.246;2022-07-05T06:02:50;100612.59;;;20.77;72.19
22662;BME280;11497;52.222;21.246;2022-07-05T06:05:18;100606.09;;;21.05;71.19
22662;BME280;11497;52.222;21.246;2022-07-05T06:07:54;100602.81;;;21.25;69.50
22662;BME280;11497;52.222;21.246;2022-07-05T06:10:24;100609.16;;;21.35;68.56
22662;BME280;11497;52.222;21.246;2022-07-05T06:12:54;100606.31;;;21.49;68.50
22662;BME280;11497;52.222;21.246;2022-07-05T06:15:23;100605.41;;;21.62;67.18
22662;BME280;11497;52.222;21.246;2022-07-05T06:17:51;100601.53;;;21.66;67.00
22662;BME280;11497;52.222;21.246;2022-07-05T06:20:22;100598.34;;;21.96;67.00
22662;BME280;11497;52.222;21.246;2022-07-05T06:22:51;100599.25;;;22.41;65.33
22662;BME280;11497;52.222;21.246;2022-07-05T06:25:20;100593.41;;;22.47;63.78
22662;BME280;11497;52.222;21.246;2022-07-05T06:27:56;100594.97;;;22.61;62.86
22662;BME280;11497;52.222;21.246;2022-07-05T06:30:26;100601.50;;;22.56;62.89
22662;BME280;11497;52.222;21.246;2022-07-05T06:32:55;100603.34;;;22.78;62.77
22662;BME280;11497;52.222;21.246;2022-07-05T06:35:23;100610.31;;;23.02;62.26
22662;BME280;11497;52.222;21.246;2022-07-05T06:37:57;100615.50;;;23.46;61.18
22662;BME280;11497;52.222;21.246;2022-07-05T06:40:29;100607.63;;;23.77;60.38
22662;BME280;11497;52.222;21.246;2022-07-05T06:43:00;100613.47;;;24.12;59.20
22662;BME280;11497;52.222;21.246;2022-07-05T06:45:39;100608.88;;;24.54;58.10
22662;BME280;11497;52.222;21.246;2022-07-05T06:48:10;100600.22;;;24.81;56.48
22662;BME280;11497;52.222;21.246;2022-07-05T06:50:40;100601.72;;;25.05;55.13
22662;BME280;11497;52.222;21.246;2022-07-05T06:53:09;100608.19;;;25.22;54.12
22662;BME280;11497;52.222;21.246;2022-07-05T06:55:37;100615.66;;;25.18;53.41
22662;BME280;11497;52.222;21.246;2022-07-05T06:58:07;100623.72;;;25.37;53.71
22662;BME280;11497;52.222;21.246;2022-07-05T07:00:40;100610.59;;;25.92;53.23
22662;BME280;11497;52.222;21.246;2022-07-05T07:03:28;100611.09;;;26.15;51.71
22662;BME280;11497;52.222;21.246;2022-07-05T07:06:16;100615.00;;;26.40;51.00
22662;BME280;11497;52.222;21.246;2022-07-05T07:08:45;100617.47;;;26.51;50.63
22662;BME280;11497;52.222;21.246;2022-07-05T07:11:31;100618.38;;;26.69;50.06
22662;BME280;11497;52.222;21.246;2022-07-05T07:13:58;100616.56;;;26.88;49.60
22662;BME280;11497;52.222;21.246;2022-07-05T07:16:26;100618.88;;;27.10;48.47
22662;BME280;11497;52.222;21.246;2022-07-05T07:18:54;100619.38;;;26.96;48.48
22662;BME280;11497;52.222;21.246;2022-07-05T07:21:41;100625.09;;;27.10;48.63
22662;BME280;11497;52.222;21.246;2022-07-05T07:24:10;100618.41;;;28.11;47.24
22662;BME280;11497;52.222;21.246;2022-07-05T07:26:38;100620.81;;;30.53;43.17
22662;BME280;11497;52.222;21.246;2022-07-05T07:29:25;100624.66;;;32.56;38.76
22662;BME280;11497;52.222;21.246;2022-07-05T07:31:53;100631.19;;;34.26;36.16
22662;BME280;11497;52.222;21.246;2022-07-05T07:34:20;100625.28;;;35.79;33.39
22662;BME280;11497;52.222;21.246;2022-07-05T07:36:49;100633.78;;;37.94;29.76
22662;BME280;11497;52.222;21.246;2022-07-05T07:39:17;100631.22;;;39.09;27.34
22662;BME280;11497;52.222;21.246;2022-07-05T07:41:45;100634.06;;;40.20;25.97
22662;BME280;11497;52.222;21.246;2022-07-05T07:44:13;100637.59;;;40.56;24.55
22662;BME280;11497;52.222;21.246;2022-07-05T07:46:41;100634.78;;;39.81;24.97
22662;BME280;11497;52.222;21.246;2022-07-05T07:49:10;100638.44;;;40.57;24.33
22662;BME280;11497;52.222;21.246;2022-07-05T07:51:39;100635.13;;;40.95;23.70
22662;BME280;11497;52.222;21.246;2022-07-05T07:54:07;100638.94;;;41.67;22.82
22662;BME280;11497;52.222;21.246;2022-07-05T07:56:35;100631.06;;;41.26;22.52
22662;BME280;11497;52.222;21.246;2022-07-05T07:59:03;100627.75;;;42.07;22.10
22662;BME280;11497;52.222;21.246;2022-07-05T08:01:31;100620.13;;;42.31;21.14
22662;BME280;11497;52.222;21.246;2022-07-05T08:03:59;100619.75;;;43.42;20.56
22662;BME280;11497;52.222;21.246;2022-07-05T08:06:27;100619.59;;;43.91;19.99
22662;BME280;11497;52.222;21.246;2022-07-05T08:08:55;100622.91;;;45.18;18.70
22662;BME280;11497;52.222;21.246;2022-07-05T08:11:24;100603.47;;;44.72;18.38
22662;BME280;11497;52.222;21.246;2022-07-05T08:13:51;100603.00;;;45.16;18.10
22662;BME280;11497;52.222;21.246;2022-07-05T08:16:19;100609.44;;;45.47;17.83
22662;BME280;11497;52.222;21.246;2022-07-05T08:18:47;100601.41;;;45.25;17.51
22662;BME280;11497;52.222;21.246;2022-07-05T08:21:34;100600.66;;;43.62;18.61
22662;BME280;11497;52.222;21.246;2022-07-05T08:24:12;100598.59;;;43.21;19.19
22662;BME280;11497;52.222;21.246;2022-07-05T08:26:41;100609.78;;;44.05;18.85
22662;BME280;11497;52.222;21.246;2022-07-05T08:29:10;100606.91;;;45.04;17.88
22662;BME280;11497;52.222;21.246;2022-07-05T08:31:49;100605.81;;;45.31;17.48
22662;BME280;11497;52.222;21.246;2022-07-05T08:34:17;100599.75;;;45.44;17.45
22662;BME280;11497;52.222;21.246;2022-07-05T08:36:46;100591.94;;;44.85;17.88
22662;BME280;11497;52.222;21.246;2022-07-05T08:39:15;100593.06;;;45.09;17.22
22662;BME280;11497;52.222;21.246;2022-07-05T08:41:47;100592.91;;;44.49;18.05
22662;BME280;11497;52.222;21.246;2022-07-05T08:44:21;100596.22;;;44.51;17.82
22662;BME280;11497;52.222;21.246;2022-07-05T08:46:50;100597.91;;;44.52;18.22
22662;BME280;11497;52.222;21.246;2022-07-05T08:49:26;100593.56;;;44.81;17.59
22662;BME280;11497;52.222;21.246;2022-07-05T08:51:55;100603.06;;;45.66;17.23
22662;BME280;11497;52.222;21.246;2022-07-05T08:54:24;100598.63;;;45.70;17.32
22662;BME280;11497;52.222;21.246;2022-07-05T08:56:52;100592.69;;;46.28;16.61
22662;BME280;11497;52.222;21.246;2022-07-05T08:59:40;100593.53;;;46.28;17.05
22662;BME280;11497;52.222;21.246;2022-07-05T09:02:12;100594.19;;;45.85;16.86
22662;BME280;11497;52.222;21.246;2022-07-05T09:04:44;100592.84;;;46.57;16.18
22662;BME280;11497;52.222;21.246;2022-07-05T09:07:16;100595.56;;;46.77;16.19
22662;BME280;11497;52.222;21.246;2022-07-05T09:09:48;100593.97;;;46.56;15.99
22662;BME280;11497;52.222;21.246;2022-07-05T09:12:16;100594.66;;;46.22;16.17
22662;BME280;11497;52.222;21.246;2022-07-05T09:14:49;100589.53;;;46.60;16.05
22662;BME280;11497;52.222;21.246;2022-07-05T09:17:18;100587.47;;;46.21;16.08
22662;BME280;11497;52.222;21.246;2022-07-05T09:20:08;100582.47;;;46.23;16.52
22662;BME280;11497;52.222;21.246;2022-07-05T09:22:55;100586.38;;;46.12;15.93
22662;BME280;11497;52.222;21.246;2022-07-05T09:25:28;100574.84;;;44.98;16.92
22662;BME280;11497;52.222;21.246;2022-07-05T09:28:04;100575.97;;;45.28;17.15
22662;BME280;11497;52.222;21.246;2022-07-05T09:30:36;100582.06;;;45.30;16.73
22662;BME280;11497;52.222;21.246;2022-07-05T09:35:35;100571.09;;;43.58;18.36
22662;BME280;11497;52.222;21.246;2022-07-05T09:38:04;100567.28;;;41.91;19.49
22662;BME280;11497;52.222;21.246;2022-07-05T09:40:33;100566.13;;;41.19;20.29
22662;BME280;11497;52.222;21.246;2022-07-05T09:43:26;100572.72;;;40.90;20.76
22662;BME280;11497;52.222;21.246;2022-07-05T09:45:55;100561.41;;;40.46;21.76
22662;BME280;11497;52.222;21.246;2022-07-05T09:48:24;100566.25;;;40.16;22.14
22662;BME280;11497;52.222;21.246;2022-07-05T09:51:05;100556.25;;;40.10;22.05
22662;BME280;11497;52.222;21.246;2022-07-05T09:53:55;100560.44;;;39.77;22.38
22662;BME280;11497;52.222;21.246;2022-07-05T09:56:28;100554.88;;;38.89;22.74
22662;BME280;11497;52.222;21.246;2022-07-05T09:59:15;100556.53;;;38.60;23.00
22662;BME280;11497;52.222;21.246;2022-07-05T10:01:46;100556.19;;;37.52;24.21
22662;BME280;11497;52.222;21.246;2022-07-05T10:04:14;100557.34;;;36.68;25.14
22662;BME280;11497;52.222;21.246;2022-07-05T10:06:42;100554.63;;;35.24;26.29
22662;BME280;11497;52.222;21.246;2022-07-05T10:09:11;100550.91;;;34.17;28.04
22662;BME280;11497;52.222;21.246;2022-07-05T10:11:41;100552.50;;;33.49;29.39
22662;BME280;11497;52.222;21.246;2022-07-05T10:14:15;100548.75;;;32.86;30.05
22662;BME280;11497;52.222;21.246;2022-07-05T10:16:48;100555.38;;;32.47;31.25
22662;BME280;11497;52.222;21.246;2022-07-05T10:19:20;100553.59;;;31.95;31.48
22662;BME280;11497;52.222;21.246;2022-07-05T10:21:49;100554.63;;;31.57;32.65
22662;BME280;11497;52.222;21.246;2022-07-05T10:24:38;100554.34;;;31.66;33.12
22662;BME280;11497;52.222;21.246;2022-07-05T10:27:07;100551.28;;;31.55;33.17
22662;BME280;11497;52.222;21.246;2022-07-05T10:29:39;100549.78;;;31.67;33.55
22662;BME280;11497;52.222;21.246;2022-07-05T10:32:08;100560.94;;;31.87;33.31
22662;BME280;11497;52.222;21.246;2022-07-05T10:34:39;100553.69;;;31.87;32.65
22662;BME280;11497;52.222;21.246;2022-07-05T10:37:30;100559.34;;;31.78;32.46
22662;BME280;11497;52.222;21.246;2022-07-05T10:39:59;100553.19;;;31.46;33.08
22662;BME280;11497;52.222;21.246;2022-07-05T10:42:41;100550.94;;;31.35;33.83
22662;BME280;11497;52.222;21.246;2022-07-05T10:45:48;100562.88;;;31.40;34.33
22662;BME280;11497;52.222;21.246;2022-07-05T10:48:21;100550.09;;;31.34;33.29
22662;BME280;11497;52.222;21.246;2022-07-05T10:53:24;100553.16;;;31.69;33.98
22662;BME280;11497;52.222;21.246;2022-07-05T10:58:44;100557.53;;;31.32;34.28
22662;BME280;11497;52.222;21.246;2022-07-05T11:03:47;100555.50;;;31.34;34.25
22662;BME280;11497;52.222;21.246;2022-07-05T11:06:23;100551.50;;;31.68;33.77
22662;BME280;11497;52.222;21.246;2022-07-05T11:11:26;100553.84;;;31.71;32.65
22662;BME280;11497;52.222;21.246;2022-07-05T11:13:55;100548.47;;;31.63;33.30
22662;BME280;11497;52.222;21.246;2022-07-05T11:16:32;100550.31;;;31.85;32.64
22662;BME280;11497;52.222;21.246;2022-07-05T11:19:13;100545.44;;;31.81;33.24
22662;BME280;11497;52.222;21.246;2022-07-05T11:22:05;100540.34;;;32.00;33.53
22662;BME280;11497;52.222;21.246;2022-07-05T11:24:35;100528.00;;;32.13;32.97
22662;BME280;11497;52.222;21.246;2022-07-05T11:27:10;100528.13;;;32.04;33.04
22662;BME280;11497;52.222;21.246;2022-07-05T11:29:45;100525.94;;;32.15;33.39
22662;BME280;11497;52.222;21.246;2022-07-05T11:32:18;100530.59;;;32.21;33.35
22662;BME280;11497;52.222;21.246;2022-07-05T11:34:48;100523.16;;;32.23;32.91
22662;BME280;11497;52.222;21.246;2022-07-05T11:42:48;100526.91;;;31.55;33.53
22662;BME280;11497;52.222;21.246;2022-07-05T11:45:17;100517.78;;;31.56;33.99
22662;BME280;11497;52.222;21.246;2022-07-05T11:47:45;100511.41;;;31.86;33.43
22662;BME280;11497;52.222;21.246;2022-07-05T11:50:13;100514.19;;;31.78;32.90
22662;BME280;11497;52.222;21.246;2022-07-05T11:52:41;100515.94;;;31.33;32.96
22662;BME280;11497;52.222;21.246;2022-07-05T11:55:10;100507.91;;;31.25;34.05
22662;BME280;11497;52.222;21.246;2022-07-05T11:57:49;100502.19;;;31.20;34.41
22662;BME280;11497;52.222;21.246;2022-07-05T12:00:34;100499.13;;;31.23;33.75
22662;BME280;11497;52.222;21.246;2022-07-05T12:03:13;100501.00;;;31.60;33.59
22662;BME280;11497;52.222;21.246;2022-07-05T12:05:42;100487.34;;;31.39;33.68
22662;BME280;11497;52.222;21.246;2022-07-05T12:08:09;100487.81;;;31.42;33.70
22662;BME280;11497;52.222;21.246;2022-07-05T12:10:37;100490.69;;;31.41;34.05
22662;BME280;11497;52.222;21.246;2022-07-05T12:13:46;100481.47;;;30.90;34.35
22662;BME280;11497;52.222;21.246;2022-07-05T12:16:14;100490.59;;;30.89;34.67
22662;BME280;11497;52.222;21.246;2022-07-05T12:18:54;100489.16;;;31.01;34.75
22662;BME280;11497;52.222;21.246;2022-07-05T12:21:28;100488.63;;;30.83;34.71
22662;BME280;11497;52.222;21.246;2022-07-05T12:23:56;100483.19;;;30.29;34.41
22662;BME280;11497;52.222;21.246;2022-07-05T12:26:24;100490.69;;;30.10;34.82
22662;BME280;11497;52.222;21.246;2022-07-05T12:28:52;100482.31;;;29.89;35.50
22662;BME280;11497;52.222;21.246;2022-07-05T12:31:21;100481.66;;;29.87;35.29
22662;BME280;11497;52.222;21.246;2022-07-05T12:33:51;100477.47;;;29.76;35.78
22662;BME280;11497;52.222;21.246;2022-07-05T12:36:21;100476.97;;;29.73;35.54
22662;BME280;11497;52.222;21.246;2022-07-05T12:39:01;100478.41;;;29.44;35.82
22662;BME280;11497;52.222;21.246;2022-07-05T12:41:29;100477.34;;;29.54;36.44
22662;BME280;11497;52.222;21.246;2022-07-05T12:43:59;100472.63;;;29.48;36.93
22662;BME280;11497;52.222;21.246;2022-07-05T12:46:36;100471.63;;;29.24;36.66
22662;BME280;11497;52.222;21.246;2022-07-05T12:49:11;100478.91;;;28.99;37.15
22662;BME280;11497;52.222;21.246;2022-07-05T12:51:41;100475.13;;;28.76;37.20
22662;BME280;11497;52.222;21.246;2022-07-05T12:54:20;100481.31;;;28.60;37.84
22662;BME280;11497;52.222;21.246;2022-07-05T12:57:07;100483.66;;;28.47;38.85
22662;BME280;11497;52.222;21.246;2022-07-05T12:59:58;100480.59;;;28.00;38.28
22662;BME280;11497;52.222;21.246;2022-07-05T13:02:39;100486.00;;;27.74;39.23
22662;BME280;11497;52.222;21.246;2022-07-05T13:05:12;100492.00;;;27.60;39.90
22662;BME280;11497;52.222;21.246;2022-07-05T13:07:51;100488.16;;;27.44;40.06
22662;BME280;11497;52.222;21.246;2022-07-05T13:10:23;100494.94;;;27.31;40.64
22662;BME280;11497;52.222;21.246;2022-07-05T13:12:51;100494.28;;;27.11;41.05
22662;BME280;11497;52.222;21.246;2022-07-05T13:15:19;100491.66;;;26.83;41.86
22662;BME280;11497;52.222;21.246;2022-07-05T13:17:47;100491.00;;;26.54;41.85
22662;BME280;11497;52.222;21.246;2022-07-05T13:20:17;100498.97;;;26.46;41.87